Time;durP1;ratioP1;P1;durP2;ratioP2;P2;SDS_P1;SDS_P2;PMS_P1;PMS_P2;Temp;Humidity;BMP_temperature;BMP_pressure;BME280_temperature;BME280_humidity;BME280_pressure;Samples;Min_cycle;Max_cycle;Signal;HPM_P1;HPM_P2
2021/01/05 00:05:33;;;;;;;37.97;21.57;;;;;;;;;;5604341;23;20469;-96
2021/01/05 00:07:59;;;;;;;34.43;20.00;;;;;;;;;;5019607;28;20491;-93
2021/01/05 00:13:25;;;;;;;27.67;17.73;;;;;;;;;;4999136;28;20226;-93
2021/01/05 02:14:32;;;;;;;13.37;11.10;;;;;;;;;;5065952;23;20463;-96
2021/01/05 02:17:28;;;;;;;13.07;10.80;;;;;;;;;;5009078;28;20434;-96
2021/01/05 02:19:57;;;;;;;14.10;11.30;;;;;;;;;;5038024;28;20451;-96
2021/01/05 02:22:28;;;;;;;15.70;12.00;;;;;;;;;;5040029;28;20432;-96
2021/01/05 02:24:59;;;;;;;28.87;18.57;;;;;;;;;;5021072;28;20456;-96
2021/01/05 03:12:07;;;;;;;114.47;45.63;;;;;;;;;;5021064;28;20416;-96
2021/01/05 03:14:37;;;;;;;78.23;37.80;;;;;;;;;;4994568;28;20573;-96
2021/01/05 03:17:09;;;;;;;63.27;31.63;;;;;;;;;;4998839;28;20478;-96
2021/01/05 03:22:11;;;;;;;53.37;29.43;;;;;;;;;;4990355;28;20493;-96
2021/01/05 03:24:38;;;;;;;59.70;30.87;;;;;;;;;;5003108;28;20444;-96
2021/01/05 03:27:06;;;;;;;71.93;36.53;;;;;;;;;;4997170;28;20462;-96
2021/01/05 03:29:32;;;;;;;96.40;41.50;;;;;;;;;;4998375;28;20489;-96
2021/01/05 03:32:02;;;;;;;105.70;43.30;;;;;;;;;;5017181;28;20441;-96
2021/01/05 03:34:28;;;;;;;190.07;44.70;;;;;;;;;;4999545;28;20557;-95
2021/01/05 03:36:55;;;;;;;120.83;45.90;;;;;;;;;;4990220;28;20453;-96
2021/01/05 03:39:21;;;;;;;226.40;49.30;;;;;;;;;;4993071;28;20446;-96
2021/01/05 03:41:47;;;;;;;133.37;43.60;;;;;;;;;;5009460;28;20452;-96
2021/01/05 03:49:43;;;;;;;67.70;37.40;;;;;;;;;;5556532;22;20576;-96
2021/01/05 03:52:10;;;;;;;71.97;37.17;;;;;;;;;;5018942;28;20452;-96
2021/01/05 03:54:43;;;;;;;77.17;38.93;;;;;;;;;;5076127;23;20489;-96
2021/01/05 04:23:04;;;;;;;428.27;67.90;;;;;;;;;;5033802;28;20479;-96
2021/01/05 04:25:32;;;;;;;368.63;59.23;;;;;;;;;;5026528;28;20476;-96
2021/01/05 04:27:58;;;;;;;288.80;59.57;;;;;;;;;;5014623;28;20440;-96
2021/01/05 04:30:31;;;;;;;180.80;46.27;;;;;;;;;;5017606;28;20440;-96
2021/01/05 04:33:03;;;;;;;386.07;59.83;;;;;;;;;;5015861;28;20500;-96
2021/01/05 04:35:32;;;;;;;409.83;59.37;;;;;;;;;;5028799;28;20494;-96
2021/01/05 04:37:59;;;;;;;326.60;56.13;;;;;;;;;;5028730;28;20476;-96
2021/01/05 04:40:36;;;;;;;470.23;59.57;;;;;;;;;;5028155;28;20490;-96
2021/01/05 04:43:17;;;;;;;554.63;68.90;;;;;;;;;;5010548;28;20467;-96
2021/01/05 04:45:51;;;;;;;567.07;70.00;;;;;;;;;;5009993;28;20441;-96
2021/01/05 04:48:42;;;;;;;346.80;53.27;;;;;;;;;;5003649;28;20524;-96
2021/01/05 04:54:17;;;;;;;272.37;40.93;;;;;;;;;;5092014;22;20510;-96
2021/01/05 04:56:51;;;;;;;291.10;43.33;;;;;;;;;;5058709;28;20447;-96
2021/01/05 04:59:18;;;;;;;189.60;37.47;;;;;;;;;;5058177;28;20442;-96
2021/01/05 05:09:36;;;;;;;84.67;29.90;;;;;;;;;;4996043;28;20480;-96
2021/01/05 05:12:15;;;;;;;44.10;24.17;;;;;;;;;;4982011;28;20466;-96
2021/01/05 05:14:48;;;;;;;37.60;24.17;;;;;;;;;;4996151;28;20501;-96
2021/01/05 05:17:27;;;;;;;43.10;24.07;;;;;;;;;;4993619;28;20537;-96
2021/01/05 05:23:00;;;;;;;26.73;17.10;;;;;;;;;;4979835;28;20473;-96
2021/01/05 05:28:45;;;;;;;14.10;9.23;;;;;;;;;;4980985;28;20449;-96
2021/01/05 05:39:52;;;;;;;10.80;6.73;;;;;;;;;;5055252;23;20491;-96
2021/01/05 05:42:27;;;;;;;14.33;8.47;;;;;;;;;;5017347;28;20467;-96
2021/01/05 05:47:40;;;;;;;15.47;9.73;;;;;;;;;;5515327;23;20492;-96
2021/01/05 05:50:15;;;;;;;9.87;7.57;;;;;;;;;;4993314;28;20885;-96
2021/01/05 05:52:44;;;;;;;8.17;5.90;;;;;;;;;;4990218;28;20460;-95
2021/01/05 05:55:21;;;;;;;13.23;9.70;;;;;;;;;;4978073;28;20503;-95
2021/01/05 05:57:49;;;;;;;13.40;10.70;;;;;;;;;;4982224;28;21487;-96
2021/01/05 06:00:21;;;;;;;13.40;10.83;;;;;;;;;;4981746;28;20460;-96
2021/01/05 06:02:47;;;;;;;10.77;9.67;;;;;;;;;;4999210;28;20477;-96
2021/01/05 06:05:21;;;;;;;11.93;9.57;;;;;;;;;;5001181;28;20452;-96
2021/01/05 06:07:47;;;;;;;11.80;9.53;;;;;;;;;;5002799;28;20487;-96
2021/01/05 06:10:13;;;;;;;11.60;8.07;;;;;;;;;;4999897;28;20473;-94
2021/01/05 06:12:40;;;;;;;10.70;7.77;;;;;;;;;;5002235;28;20468;-95
2021/01/05 06:15:06;;;;;;;11.67;7.80;;;;;;;;;;5004260;28;20492;-94
2021/01/05 06:17:32;;;;;;;10.73;7.97;;;;;;;;;;4988452;28;20446;-95
2021/01/05 06:19:58;;;;;;;15.93;10.67;;;;;;;;;;5006642;28;20453;-95
2021/01/05 06:22:24;;;;;;;16.03;11.07;;;;;;;;;;4989072;28;20469;-95
2021/01/05 06:24:50;;;;;;;13.87;10.70;;;;;;;;;;4986412;28;20559;-95
2021/01/05 06:27:16;;;;;;;11.97;9.77;;;;;;;;;;4995329;28;20445;-95
2021/01/05 06:29:43;;;;;;;13.63;9.20;;;;;;;;;;4991509;28;20474;-95
2021/01/05 06:32:09;;;;;;;16.93;9.60;;;;;;;;;;4999400;28;20477;-94
2021/01/05 06:34:35;;;;;;;6.30;4.63;;;;;;;;;;4995673;28;20544;-96
2021/01/05 06:37:01;;;;;;;6.67;5.20;;;;;;;;;;4986377;28;20459;-94
2021/01/05 06:39:27;;;;;;;7.10;5.57;;;;;;;;;;5006927;28;20445;-95
2021/01/05 06:41:53;;;;;;;12.13;8.57;;;;;;;;;;5006033;28;20470;-96
2021/01/05 06:44:19;;;;;;;12.10;9.43;;;;;;;;;;5000984;28;20451;-95
2021/01/05 06:46:50;;;;;;;13.00;8.83;;;;;;;;;;5006357;28;20554;-95
2021/01/05 06:49:16;;;;;;;26.63;15.07;;;;;;;;;;5001698;28;20456;-94
2021/01/05 06:51:42;;;;;;;16.90;11.00;;;;;;;;;;5006447;28;20231;-95
2021/01/05 06:54:08;;;;;;;19.65;11.32;;;;;;;;;;4995307;28;20584;-96
2021/01/05 06:56:46;;;;;;;22.03;12.30;;;;;;;;;;5005285;28;20205;-94
2021/01/05 06:59:13;;;;;;;23.43;14.07;;;;;;;;;;5001533;28;20456;-95
2021/01/05 07:01:39;;;;;;;36.77;17.37;;;;;;;;;;5002617;28;20476;-94
2021/01/05 07:04:06;;;;;;;57.03;21.27;;;;;;;;;;5011035;28;20448;-95
2021/01/05 07:06:32;;;;;;;115.73;27.90;;;;;;;;;;5002135;28;20449;-95
2021/01/05 07:08:58;;;;;;;127.50;32.90;;;;;;;;;;5004134;28;20975;-95
2021/01/05 07:11:24;;;;;;;91.00;32.53;;;;;;;;;;5002227;28;20503;-95
2021/01/05 07:13:50;;;;;;;130.30;43.40;;;;;;;;;;5004421;28;20515;-95
2021/01/05 07:16:16;;;;;;;86.53;37.70;;;;;;;;;;4999005;28;20452;-96
2021/01/05 07:18:42;;;;;;;60.53;29.97;;;;;;;;;;5002315;28;20467;-94
2021/01/05 07:21:09;;;;;;;67.63;31.47;;;;;;;;;;4996683;28;20472;-94
2021/01/05 07:23:35;;;;;;;44.43;26.13;;;;;;;;;;5001884;28;20892;-94
2021/01/05 07:26:01;;;;;;;38.33;22.03;;;;;;;;;;5001974;28;20465;-94
2021/01/05 07:28:27;;;;;;;43.73;25.53;;;;;;;;;;4997581;28;20453;-94
2021/01/05 07:30:54;;;;;;;33.90;20.33;;;;;;;;;;5001970;28;20472;-95
2021/01/05 07:33:20;;;;;;;30.13;18.23;;;;;;;;;;4998155;28;20465;-94
2021/01/05 07:35:45;;;;;;;26.10;17.53;;;;;;;;;;5001915;28;20543;-93
2021/01/05 07:38:13;;;;;;;29.83;18.50;;;;;;;;;;4998169;28;20453;-94
2021/01/05 07:40:39;;;;;;;29.33;17.43;;;;;;;;;;5001784;28;20480;-94
2021/01/05 07:43:05;;;;;;;23.00;15.40;;;;;;;;;;4999489;28;20484;-95
2021/01/05 07:45:31;;;;;;;19.27;14.13;;;;;;;;;;4998920;28;20457;-95
2021/01/05 07:47:57;;;;;;;18.13;13.53;;;;;;;;;;5002941;28;20492;-96
2021/01/05 07:50:24;;;;;;;20.93;13.53;;;;;;;;;;4986681;28;20465;-94
2021/01/05 07:52:51;;;;;;;19.50;13.93;;;;;;;;;;4984170;28;20446;-94
2021/01/05 07:55:19;;;;;;;17.67;11.50;;;;;;;;;;4990047;28;20503;-94
2021/01/05 07:57:45;;;;;;;26.07;16.33;;;;;;;;;;5003099;28;20480;-93
2021/01/05 08:00:12;;;;;;;35.10;22.80;;;;;;;;;;4998674;28;20481;-93
2021/01/05 08:02:39;;;;;;;34.13;21.37;;;;;;;;;;5002471;28;20955;-93
2021/01/05 08:05:05;;;;;;;37.73;24.40;;;;;;;;;;4982676;28;20458;-94
2021/01/05 08:07:31;;;;;;;36.53;24.23;;;;;;;;;;4982029;28;20453;-93
2021/01/05 08:09:57;;;;;;;25.67;18.83;;;;;;;;;;5001830;28;20461;-94
2021/01/05 08:12:25;;;;;;;27.13;18.17;;;;;;;;;;4983211;28;20512;-93
2021/01/05 08:14:51;;;;;;;27.40;18.90;;;;;;;;;;4982224;28;20505;-93
2021/01/05 08:17:16;;;;;;;34.00;19.57;;;;;;;;;;4987085;28;20453;-93
2021/01/05 08:19:43;;;;;;;41.10;26.07;;;;;;;;;;4999250;28;20973;-94
2021/01/05 08:22:09;;;;;;;41.30;25.70;;;;;;;;;;4994135;28;20537;-94
2021/01/05 08:24:35;;;;;;;42.33;26.73;;;;;;;;;;5000950;28;20460;-93
2021/01/05 08:27:01;;;;;;;45.63;27.60;;;;;;;;;;5000534;28;20449;-93
2021/01/05 08:29:29;;;;;;;38.10;22.37;;;;;;;;;;4999555;28;20461;-93
2021/01/05 08:31:55;;;;;;;32.10;20.87;;;;;;;;;;5002296;28;20467;-94
2021/01/05 08:34:21;;;;;;;33.40;20.77;;;;;;;;;;4984214;28;20933;-94
2021/01/05 08:36:47;;;;;;;35.93;22.20;;;;;;;;;;4981263;28;20457;-92
2021/01/05 08:39:13;;;;;;;38.47;23.50;;;;;;;;;;4997670;28;20441;-92
2021/01/05 08:41:40;;;;;;;23.00;15.93;;;;;;;;;;5001388;28;20456;-93
2021/01/05 08:44:06;;;;;;;23.80;16.53;;;;;;;;;;4991246;28;20458;-93
2021/01/05 08:46:33;;;;;;;15.13;11.63;;;;;;;;;;4981604;28;20465;-93
2021/01/05 08:49:00;;;;;;;19.87;14.17;;;;;;;;;;4990500;28;20463;-93
2021/01/05 08:51:26;;;;;;;22.80;14.60;;;;;;;;;;4988448;28;20445;-93
2021/01/05 08:53:52;;;;;;;16.17;10.30;;;;;;;;;;4984485;28;20449;-93
2021/01/05 08:56:19;;;;;;;19.60;14.53;;;;;;;;;;4980596;28;20470;-93
2021/01/05 08:58:45;;;;;;;24.87;16.83;;;;;;;;;;5000775;28;20464;-93
2021/01/05 09:01:11;;;;;;;33.80;23.83;;;;;;;;;;4991058;28;20473;-92
2021/01/05 09:03:38;;;;;;;52.27;35.97;;;;;;;;;;4984387;28;20493;-93
2021/01/05 09:06:04;;;;;;;35.90;26.67;;;;;;;;;;4982352;28;20456;-93
2021/01/05 09:08:31;;;;;;;42.23;27.13;;;;;;;;;;5001678;28;20457;-94
2021/01/05 09:10:57;;;;;;;38.30;26.60;;;;;;;;;;5001937;28;20496;-93
2021/01/05 09:13:24;;;;;;;38.30;27.23;;;;;;;;;;4982497;28;20458;-92
2021/01/05 09:15:50;;;;;;;32.40;23.90;;;;;;;;;;4979534;28;20497;-93
2021/01/05 09:18:17;;;;;;;45.67;30.90;;;;;;;;;;4994084;28;20480;-93
2021/01/05 09:20:44;;;;;;;47.90;31.37;;;;;;;;;;5000359;28;20483;-94
2021/01/05 09:23:10;;;;;;;43.17;30.33;;;;;;;;;;4990636;28;20449;-94
2021/01/05 09:25:37;;;;;;;42.43;27.93;;;;;;;;;;4983252;28;20465;-94
2021/01/05 09:28:03;;;;;;;16.90;13.33;;;;;;;;;;4996131;28;20450;-95
2021/01/05 09:30:29;;;;;;;10.27;8.10;;;;;;;;;;4982619;28;20492;-94
2021/01/05 09:32:55;;;;;;;5.67;4.97;;;;;;;;;;4981787;28;20473;-93
2021/01/05 09:35:21;;;;;;;5.30;4.80;;;;;;;;;;4999261;28;20493;-93
2021/01/05 09:37:49;;;;;;;6.60;5.30;;;;;;;;;;5001326;28;20817;-93
2021/01/05 09:40:16;;;;;;;7.07;5.50;;;;;;;;;;4991291;28;21255;-94
2021/01/05 09:42:42;;;;;;;10.43;7.93;;;;;;;;;;5003326;28;21203;-95
2021/01/05 09:45:09;;;;;;;11.27;9.67;;;;;;;;;;4993061;28;20608;-94
2021/01/05 09:47:35;;;;;;;10.00;7.00;;;;;;;;;;5003337;28;20479;-95
2021/01/05 09:50:01;;;;;;;7.87;7.00;;;;;;;;;;4999092;28;20455;-94
2021/01/05 09:52:27;;;;;;;6.50;5.30;;;;;;;;;;4984300;28;20546;-94
2021/01/05 09:54:54;;;;;;;6.00;5.40;;;;;;;;;;4986588;28;20490;-93
2021/01/05 09:57:20;;;;;;;9.73;8.80;;;;;;;;;;4986227;28;20467;-93
2021/01/05 09:59:47;;;;;;;5.47;4.97;;;;;;;;;;4985316;28;20663;-95
2021/01/05 10:02:28;;;;;;;6.10;4.50;;;;;;;;;;4985304;28;20469;-95
2021/01/05 10:04:55;;;;;;;7.00;4.97;;;;;;;;;;4988638;28;20463;-95
2021/01/05 10:07:23;;;;;;;4.80;4.07;;;;;;;;;;5000914;28;20471;-93
2021/01/05 10:09:49;;;;;;;5.17;4.43;;;;;;;;;;5004271;28;20467;-94
2021/01/05 10:18:27;;;;;;;3.93;3.53;;;;;;;;;;4902729;28;21392;-95
2021/01/05 10:20:53;;;;;;;4.90;4.40;;;;;;;;;;5005012;28;20540;-92
2021/01/05 10:23:19;;;;;;;4.57;3.97;;;;;;;;;;4997299;28;20581;-94
2021/01/05 10:25:47;;;;;;;5.30;4.40;;;;;;;;;;4999886;28;20484;-94
2021/01/05 10:28:13;;;;;;;4.80;4.40;;;;;;;;;;5002682;28;20494;-93
2021/01/05 10:30:40;;;;;;;5.30;4.13;;;;;;;;;;4985564;28;20460;-92
2021/01/05 10:33:06;;;;;;;3.43;3.13;;;;;;;;;;4988332;28;20459;-93
2021/01/05 10:35:32;;;;;;;3.60;3.27;;;;;;;;;;4999069;28;20520;-94
2021/01/05 10:37:58;;;;;;;8.60;6.57;;;;;;;;;;5001574;28;20497;-94
2021/01/05 10:40:25;;;;;;;16.53;12.10;;;;;;;;;;4990597;28;20467;-93
2021/01/05 10:43:07;;;;;;;14.03;9.77;;;;;;;;;;4984133;28;20497;-94
2021/01/05 10:48:45;;;;;;;8.20;7.30;;;;;;;;;;5000191;28;20557;-94
2021/01/05 10:51:11;;;;;;;8.57;5.80;;;;;;;;;;4988424;28;20490;-95
2021/01/05 10:53:40;;;;;;;7.57;6.43;;;;;;;;;;4984165;28;20500;-94
2021/01/05 10:59:02;;;;;;;8.87;7.67;;;;;;;;;;4974141;28;20448;-94
2021/01/05 11:02:09;;;;;;;9.30;6.57;;;;;;;;;;4994761;28;20476;-95
2021/01/05 11:04:36;;;;;;;3.20;3.00;;;;;;;;;;4998463;28;20477;-93
2021/01/05 11:07:03;;;;;;;2.73;2.53;;;;;;;;;;4998120;28;20461;-93
2021/01/05 11:09:33;;;;;;;1.97;1.87;;;;;;;;;;4983015;28;20456;-95
2021/01/05 11:12:03;;;;;;;1.90;1.80;;;;;;;;;;4984525;28;20441;-93
2021/01/05 11:14:29;;;;;;;2.20;2.00;;;;;;;;;;5007560;28;20534;-93
2021/01/05 11:16:56;;;;;;;1.80;1.70;;;;;;;;;;5003689;28;20455;-91
2021/01/05 11:19:22;;;;;;;1.77;1.67;;;;;;;;;;4987681;28;20465;-94
2021/01/05 11:21:54;;;;;;;1.60;1.50;;;;;;;;;;4980421;28;20459;-96
2021/01/05 11:24:21;;;;;;;1.80;1.70;;;;;;;;;;4993205;28;20462;-94
2021/01/05 11:26:47;;;;;;;2.30;2.10;;;;;;;;;;4999932;28;20471;-92
2021/01/05 11:29:14;;;;;;;2.00;1.80;;;;;;;;;;4993647;28;20461;-94
2021/01/05 11:31:40;;;;;;;1.63;1.53;;;;;;;;;;4984015;28;20455;-94
2021/01/05 11:34:06;;;;;;;1.97;1.50;;;;;;;;;;4997019;28;20461;-93
2021/01/05 11:36:32;;;;;;;1.67;1.57;;;;;;;;;;5002382;28;20459;-94
2021/01/05 11:38:59;;;;;;;1.60;1.50;;;;;;;;;;5003585;28;21003;-93
2021/01/05 11:41:27;;;;;;;1.70;1.60;;;;;;;;;;4997222;28;20452;-92
2021/01/05 11:43:53;;;;;;;1.37;1.27;;;;;;;;;;5002850;28;20467;-91
2021/01/05 11:46:19;;;;;;;1.70;1.60;;;;;;;;;;4996355;28;20453;-95
2021/01/05 11:48:51;;;;;;;2.10;1.90;;;;;;;;;;4996742;28;20494;-96
2021/01/05 11:51:18;;;;;;;1.77;1.57;;;;;;;;;;4992293;28;20460;-95
2021/01/05 11:53:44;;;;;;;1.77;1.67;;;;;;;;;;4996963;28;20460;-92
2021/01/05 11:56:17;;;;;;;2.00;1.80;;;;;;;;;;4996253;28;20499;-94
2021/01/05 11:58:43;;;;;;;2.27;2.00;;;;;;;;;;4977786;28;20459;-94
2021/01/05 12:01:09;;;;;;;2.03;1.83;;;;;;;;;;4978198;28;20449;-95
2021/01/05 12:03:36;;;;;;;2.13;2.03;;;;;;;;;;4998480;28;20471;-95
2021/01/05 12:06:02;;;;;;;1.73;1.63;;;;;;;;;;5003559;28;20475;-95
2021/01/05 12:08:28;;;;;;;1.80;1.70;;;;;;;;;;4998198;28;20463;-94
2021/01/05 12:10:54;;;;;;;1.77;1.67;;;;;;;;;;5002813;28;20467;-95
2021/01/05 12:13:20;;;;;;;1.87;1.77;;;;;;;;;;4999644;28;20472;-95
2021/01/05 12:15:47;;;;;;;2.03;1.90;;;;;;;;;;5003031;28;20491;-94
2021/01/05 12:18:19;;;;;;;2.10;1.87;;;;;;;;;;4998082;28;20464;-94
2021/01/05 12:20:47;;;;;;;2.30;1.73;;;;;;;;;;5004161;28;20458;-95
2021/01/05 12:23:23;;;;;;;2.10;1.83;;;;;;;;;;5002068;28;20491;-95
2021/01/05 12:26:03;;;;;;;2.00;1.90;;;;;;;;;;4982183;28;20698;-94
2021/01/05 12:28:41;;;;;;;1.93;1.83;;;;;;;;;;4983020;28;20544;-95
2021/01/05 12:31:11;;;;;;;1.70;1.60;;;;;;;;;;4993948;28;20471;-96
2021/01/05 12:33:37;;;;;;;2.70;2.50;;;;;;;;;;5002624;28;20451;-96
2021/01/05 12:36:14;;;;;;;4.10;2.33;;;;;;;;;;4992273;28;20514;-96
2021/01/05 12:38:41;;;;;;;2.23;2.03;;;;;;;;;;4983998;28;20470;-96
2021/01/05 12:41:07;;;;;;;3.37;2.17;;;;;;;;;;4983182;28;20469;-96
2021/01/05 12:43:34;;;;;;;2.50;2.10;;;;;;;;;;4982381;28;20460;-95
2021/01/05 12:46:00;;;;;;;3.00;2.33;;;;;;;;;;4981930;28;20461;-94
2021/01/05 12:48:26;;;;;;;2.83;2.63;;;;;;;;;;4988685;28;20498;-95
2021/01/05 12:50:52;;;;;;;2.33;2.23;;;;;;;;;;5001895;28;20466;-95
2021/01/05 12:53:18;;;;;;;3.00;2.70;;;;;;;;;;5000345;28;20483;-95
2021/01/05 12:55:44;;;;;;;4.13;2.30;;;;;;;;;;5002904;28;20492;-94
2021/01/05 12:58:11;;;;;;;2.00;1.90;;;;;;;;;;4986014;28;20519;-93
2021/01/05 13:00:38;;;;;;;2.10;2.00;;;;;;;;;;4989590;28;20953;-94
2021/01/05 13:03:04;;;;;;;2.67;2.10;;;;;;;;;;4990669;28;20937;-95
2021/01/05 13:05:34;;;;;;;1.90;1.80;;;;;;;;;;4982300;28;20522;-95
2021/01/05 13:08:00;;;;;;;2.80;2.60;;;;;;;;;;4980910;28;20475;-94
2021/01/05 13:10:27;;;;;;;2.73;2.27;;;;;;;;;;4990084;28;20469;-93
2021/01/05 13:12:52;;;;;;;2.13;1.93;;;;;;;;;;5001974;28;20997;-93
2021/01/05 13:15:19;;;;;;;3.93;2.70;;;;;;;;;;4995899;28;20488;-94
2021/01/05 13:17:46;;;;;;;2.40;2.30;;;;;;;;;;5003838;28;20464;-95
2021/01/05 13:20:13;;;;;;;3.23;2.63;;;;;;;;;;5002586;28;20461;-95
2021/01/05 13:22:39;;;;;;;2.63;2.43;;;;;;;;;;5012839;28;20458;-92
2021/01/05 13:25:06;;;;;;;2.50;2.30;;;;;;;;;;5001666;28;20437;-96
2021/01/05 13:27:32;;;;;;;2.50;2.30;;;;;;;;;;4999583;28;20454;-96
2021/01/05 13:29:58;;;;;;;2.60;2.40;;;;;;;;;;4995249;28;20467;-95
2021/01/05 13:32:28;;;;;;;3.03;2.73;;;;;;;;;;5006378;28;20455;-95
2021/01/05 13:34:56;;;;;;;2.63;2.43;;;;;;;;;;5013977;28;20494;-94
2021/01/05 13:37:22;;;;;;;4.40;2.77;;;;;;;;;;4984976;28;20940;-93
2021/01/05 13:39:49;;;;;;;3.13;2.87;;;;;;;;;;4995432;28;20488;-93
2021/01/05 13:42:15;;;;;;;4.20;3.80;;;;;;;;;;5002844;28;20468;-94
2021/01/05 13:44:41;;;;;;;4.70;3.40;;;;;;;;;;5006108;28;20452;-93
2021/01/05 13:47:10;;;;;;;3.70;3.40;;;;;;;;;;4995435;28;20534;-94
2021/01/05 13:49:36;;;;;;;3.43;3.13;;;;;;;;;;5001784;28;20503;-94
2021/01/05 13:52:07;;;;;;;3.60;3.30;;;;;;;;;;4988758;28;20459;-94
2021/01/05 13:54:33;;;;;;;2.93;2.70;;;;;;;;;;4987475;28;20498;-93
2021/01/05 13:57:00;;;;;;;3.67;3.03;;;;;;;;;;4989238;28;20437;-94
2021/01/05 13:59:26;;;;;;;3.30;3.00;;;;;;;;;;4997915;28;20472;-94
2021/01/05 14:01:53;;;;;;;3.30;3.00;;;;;;;;;;5005687;28;20460;-94
2021/01/05 14:04:19;;;;;;;2.67;2.53;;;;;;;;;;5000248;28;20484;-93
2021/01/05 14:06:45;;;;;;;4.40;2.87;;;;;;;;;;4994624;28;20464;-93
2021/01/05 14:09:12;;;;;;;3.23;2.97;;;;;;;;;;4993155;28;20501;-95
2021/01/05 14:11:38;;;;;;;3.23;2.27;;;;;;;;;;5003442;28;20471;-94
2021/01/05 14:14:04;;;;;;;2.63;2.43;;;;;;;;;;4999207;28;20472;-93
2021/01/05 14:16:30;;;;;;;4.30;2.60;;;;;;;;;;4986057;28;20511;-95
2021/01/05 14:18:56;;;;;;;3.20;3.00;;;;;;;;;;4997335;28;20471;-94
2021/01/05 14:21:23;;;;;;;10.27;7.23;;;;;;;;;;4988449;28;20469;-94
2021/01/05 14:23:49;;;;;;;7.30;6.57;;;;;;;;;;4992812;28;20454;-94
2021/01/05 14:26:17;;;;;;;7.33;6.37;;;;;;;;;;4998632;28;20472;-94
2021/01/05 14:28:43;;;;;;;8.97;7.43;;;;;;;;;;5003854;28;21101;-96
2021/01/05 14:31:11;;;;;;;6.43;5.60;;;;;;;;;;4995835;28;20465;-96
2021/01/05 14:33:37;;;;;;;6.13;4.77;;;;;;;;;;4992093;28;20479;-94
2021/01/05 14:36:03;;;;;;;7.23;5.57;;;;;;;;;;4999757;28;20504;-94
2021/01/05 14:38:29;;;;;;;10.20;7.80;;;;;;;;;;4996137;28;20468;-94
2021/01/05 14:40:55;;;;;;;11.23;7.70;;;;;;;;;;4999399;28;20526;-94
2021/01/05 14:43:22;;;;;;;11.27;8.70;;;;;;;;;;4995910;28;20455;-94
2021/01/05 14:45:48;;;;;;;8.67;7.43;;;;;;;;;;5005208;28;20458;-95
2021/01/05 14:48:14;;;;;;;12.03;8.10;;;;;;;;;;5001675;28;20495;-94
2021/01/05 14:50:40;;;;;;;6.87;4.63;;;;;;;;;;5004853;28;20462;-93
2021/01/05 14:53:06;;;;;;;5.70;4.60;;;;;;;;;;4995746;28;20460;-94
2021/01/05 14:55:34;;;;;;;4.60;4.20;;;;;;;;;;4984708;28;20492;-94
2021/01/05 14:58:00;;;;;;;4.13;3.73;;;;;;;;;;4993135;28;20475;-94
2021/01/05 15:00:28;;;;;;;4.53;3.80;;;;;;;;;;5004271;28;20493;-94
2021/01/05 15:02:54;;;;;;;3.90;3.60;;;;;;;;;;5002275;28;20464;-94
2021/01/05 15:05:20;;;;;;;3.80;3.20;;;;;;;;;;4999134;28;20998;-93
2021/01/05 15:07:46;;;;;;;4.40;3.40;;;;;;;;;;5003851;28;20527;-94
2021/01/05 15:10:14;;;;;;;3.80;3.40;;;;;;;;;;4990921;28;20455;-95
2021/01/05 15:12:41;;;;;;;3.77;3.47;;;;;;;;;;4982306;28;20530;-95
2021/01/05 15:15:07;;;;;;;4.17;3.77;;;;;;;;;;4982934;28;20498;-94
2021/01/05 15:17:34;;;;;;;3.40;3.10;;;;;;;;;;4995549;28;20500;-93
2021/01/05 15:20:00;;;;;;;5.80;4.70;;;;;;;;;;4998320;28;21913;-92
2021/01/05 15:22:26;;;;;;;6.00;4.60;;;;;;;;;;5002126;28;20449;-93
2021/01/05 15:24:52;;;;;;;8.30;5.50;;;;;;;;;;5003635;28;20461;-92
2021/01/05 15:27:18;;;;;;;8.10;6.77;;;;;;;;;;4999945;28;20523;-93
2021/01/05 15:29:44;;;;;;;6.53;5.30;;;;;;;;;;5002672;28;20456;-92
2021/01/05 15:32:11;;;;;;;4.87;4.30;;;;;;;;;;4988177;28;20454;-93
2021/01/05 15:34:38;;;;;;;5.17;4.63;;;;;;;;;;4999343;28;20484;-93
2021/01/05 15:37:04;;;;;;;5.37;4.83;;;;;;;;;;5000623;28;20476;-93
2021/01/05 15:39:32;;;;;;;7.30;5.20;;;;;;;;;;5004539;28;20797;-92
2021/01/05 15:41:58;;;;;;;7.33;6.10;;;;;;;;;;4995348;28;20496;-95
2021/01/05 15:44:25;;;;;;;19.73;14.47;;;;;;;;;;5003614;28;20480;-94
2021/01/05 15:46:54;;;;;;;12.80;8.60;;;;;;;;;;5005719;28;20516;-92
2021/01/05 15:49:21;;;;;;;9.20;7.30;;;;;;;;;;5001190;28;20461;-93
2021/01/05 15:51:48;;;;;;;8.97;6.50;;;;;;;;;;5003815;28;20460;-92
2021/01/05 15:54:14;;;;;;;7.57;6.17;;;;;;;;;;4998066;28;20460;-92
2021/01/05 15:56:40;;;;;;;11.10;7.17;;;;;;;;;;5001675;28;20500;-93
2021/01/05 15:59:07;;;;;;;9.97;6.80;;;;;;;;;;4997120;28;20446;-93
2021/01/05 16:01:34;;;;;;;6.37;4.87;;;;;;;;;;4985586;28;20458;-92
2021/01/05 16:04:00;;;;;;;5.03;4.33;;;;;;;;;;4989991;28;20468;-91
2021/01/05 16:06:27;;;;;;;12.20;8.50;;;;;;;;;;4999631;28;20547;-90
2021/01/05 16:08:55;;;;;;;9.70;7.60;;;;;;;;;;4997887;28;20452;-91
2021/01/05 16:11:22;;;;;;;9.17;7.40;;;;;;;;;;4982799;28;20533;-91
2021/01/05 16:13:48;;;;;;;10.73;7.60;;;;;;;;;;4984571;28;20461;-93
2021/01/05 16:16:14;;;;;;;12.73;8.77;;;;;;;;;;4997323;28;20519;-92
2021/01/05 16:18:40;;;;;;;12.43;8.33;;;;;;;;;;5002489;28;20601;-92
2021/01/05 16:21:08;;;;;;;15.03;9.03;;;;;;;;;;4991542;28;20490;-93
2021/01/05 16:23:35;;;;;;;16.43;10.77;;;;;;;;;;4982358;28;20457;-93
2021/01/05 16:26:02;;;;;;;15.10;10.80;;;;;;;;;;4986897;28;20503;-93
2021/01/05 16:28:28;;;;;;;14.33;9.53;;;;;;;;;;4989796;28;20452;-92
2021/01/05 16:30:56;;;;;;;15.47;9.97;;;;;;;;;;4996189;28;20449;-92
2021/01/05 16:33:22;;;;;;;13.53;9.17;;;;;;;;;;4983183;28;20487;-92
2021/01/05 16:35:48;;;;;;;12.50;9.00;;;;;;;;;;4996182;28;20496;-93
2021/01/05 16:38:14;;;;;;;13.53;9.10;;;;;;;;;;4991364;28;20459;-92
2021/01/05 16:40:41;;;;;;;17.17;10.20;;;;;;;;;;5002042;28;20461;-92
2021/01/05 16:43:12;;;;;;;17.50;13.60;;;;;;;;;;4991679;28;20611;-93
2021/01/05 16:45:38;;;;;;;15.27;10.67;;;;;;;;;;5001355;28;20464;-92
2021/01/05 16:48:05;;;;;;;12.30;9.33;;;;;;;;;;4997989;28;20577;-92
2021/01/05 16:50:32;;;;;;;6.50;5.53;;;;;;;;;;4985202;28;20468;-92
2021/01/05 16:52:58;;;;;;;8.60;6.80;;;;;;;;;;4990156;28;20468;-91
2021/01/05 16:55:25;;;;;;;12.10;8.87;;;;;;;;;;5003592;28;20491;-92
2021/01/05 16:57:51;;;;;;;7.33;6.43;;;;;;;;;;5012196;28;20447;-90
2021/01/05 17:00:19;;;;;;;6.40;5.00;;;;;;;;;;5000189;28;20952;-91
2021/01/05 17:02:45;;;;;;;4.90;4.40;;;;;;;;;;4999570;28;20470;-91
2021/01/05 17:05:11;;;;;;;8.67;6.50;;;;;;;;;;4996154;28;20482;-93
2021/01/05 17:07:37;;;;;;;7.30;5.50;;;;;;;;;;5006446;28;20451;-92
2021/01/05 17:10:04;;;;;;;7.30;5.83;;;;;;;;;;5002745;28;20456;-92
2021/01/05 17:12:31;;;;;;;7.60;6.40;;;;;;;;;;4990223;28;20464;-92
2021/01/05 17:14:57;;;;;;;17.30;12.10;;;;;;;;;;5007747;28;20488;-92
2021/01/05 17:17:24;;;;;;;17.20;11.60;;;;;;;;;;4989674;28;20471;-93
2021/01/05 17:19:50;;;;;;;11.60;9.37;;;;;;;;;;4999990;28;20864;-94
2021/01/05 17:22:16;;;;;;;13.33;9.57;;;;;;;;;;4996498;28;20456;-95
2021/01/05 17:24:42;;;;;;;18.83;12.48;;;;;;;;;;5002385;28;20498;-96
2021/01/05 17:27:12;;;;;;;12.97;10.53;;;;;;;;;;4998075;28;20223;-94
2021/01/05 17:29:38;;;;;;;9.93;7.33;;;;;;;;;;5001009;28;21023;-94
2021/01/05 17:32:04;;;;;;;7.70;5.70;;;;;;;;;;5002277;28;20456;-93
2021/01/05 17:34:31;;;;;;;10.77;8.57;;;;;;;;;;5000102;28;20512;-93
2021/01/05 17:36:57;;;;;;;16.63;13.80;;;;;;;;;;4997161;28;20444;-93
2021/01/05 17:39:23;;;;;;;14.00;11.27;;;;;;;;;;4988345;28;20496;-94
2021/01/05 17:41:51;;;;;;;10.55;8.30;;;;;;;;;;4988483;28;20224;-93
2021/01/05 17:44:17;;;;;;;14.52;10.50;;;;;;;;;;4999985;28;20210;-93
2021/01/05 17:46:43;;;;;;;13.90;10.63;;;;;;;;;;4989135;28;20226;-93
2021/01/05 17:49:09;;;;;;;18.47;12.73;;;;;;;;;;4995723;28;20479;-92
2021/01/05 17:51:36;;;;;;;16.17;12.10;;;;;;;;;;4998861;28;20845;-91
2021/01/05 17:54:02;;;;;;;16.95;13.93;;;;;;;;;;5008163;28;20448;-93
2021/01/05 17:56:32;;;;;;;14.67;11.20;;;;;;;;;;4991380;28;20318;-93
2021/01/05 17:58:58;;;;;;;13.47;11.03;;;;;;;;;;4990732;28;20449;-93
2021/01/05 18:01:25;;;;;;;12.20;10.70;;;;;;;;;;4989271;28;20471;-93
2021/01/05 18:03:51;;;;;;;11.15;9.35;;;;;;;;;;5004520;28;20517;-93
2021/01/05 18:06:20;;;;;;;10.10;7.30;;;;;;;;;;4998574;28;20700;-93
2021/01/05 18:08:47;;;;;;;8.80;6.77;;;;;;;;;;4983303;28;20463;-94
2021/01/05 18:11:13;;;;;;;9.77;7.10;;;;;;;;;;4986306;28;20484;-93
2021/01/05 18:13:39;;;;;;;10.00;7.28;;;;;;;;;;4999640;28;20457;-92
2021/01/05 18:16:06;;;;;;;11.97;10.20;;;;;;;;;;5003669;28;20714;-93
2021/01/05 18:18:32;;;;;;;11.15;9.52;;;;;;;;;;4992195;28;20456;-92
2021/01/05 18:20:58;;;;;;;12.93;10.93;;;;;;;;;;4985089;28;20213;-93
2021/01/05 18:23:24;;;;;;;11.23;8.73;;;;;;;;;;5001599;28;20497;-94
2021/01/05 18:25:51;;;;;;;15.98;11.30;;;;;;;;;;5004110;28;20459;-94
2021/01/05 18:28:17;;;;;;;9.88;8.45;;;;;;;;;;4997376;28;20555;-93
2021/01/05 18:30:43;;;;;;;17.75;13.70;;;;;;;;;;4994227;28;20211;-93
2021/01/05 18:33:09;;;;;;;16.90;13.00;;;;;;;;;;5008752;28;20198;-93
2021/01/05 18:35:35;;;;;;;22.17;15.98;;;;;;;;;;4984729;28;20426;-94
2021/01/05 18:38:01;;;;;;;31.00;21.83;;;;;;;;;;4984761;28;20726;-94